KPVD/PVD METAR and TAF weather

Enter ICAO airport designator
Station Type Date Time Source
KPVD METAR 2020/02/19 13:51 UTC NOAA

KPVD 191351Z 29011KT 10SM FEW035 FEW110 SCT300 04/M04 A3011 RMK AO2 SLP197 T00441044


Station Type Date Time Source
KPVD Decoded METAR 2020/02/19 13:51 UTC NOAA

PROVIDENCE GREEN STATE AIRPORT , RI, United States (KPVD) 41-44N 071-26W 16M
Feb 19, 2020 - 08:51 AM EST / 2020.02.19 1351 UTC
Wind: from the WNW (290 degrees) at 13 MPH (11 KT):0
Visibility: 10 mile(s):0
Sky conditions: partly cloudy
Temperature: 39.9 F (4.4 C)
Dew Point: 24.1 F (-4.4 C)
Relative Humidity: 52%
Pressure (altimeter): 30.11 in. Hg (1019 hPa)
ob: KPVD 191351Z 29011KT 10SM FEW035 FEW110 SCT300 04/M04 A3011 RMK AO2 SLP197 T00441044
cycle: 14

Station Type Date Time Source
KPVD TAF 2020/02/19 12:22 UTC NOAA

TAF KPVD 191120Z 1912/2012 32009KT P6SM OVC100
FM191400 30011G26KT P6SM FEW200
FM191800 31014G30KT P6SM FEW050
FM192200 31012G26KT P6SM FEW250
FM192300 30009KT P6SM FEW250
FM200900 30004KT P6SM FEW045

Example: see airport list